Time;durP1;ratioP1;P1;durP2;ratioP2;P2;SDS_P1;SDS_P2;PMS_P1;PMS_P2;Temp;Humidity;BMP_temperature;BMP_pressure;BME280_temperature;BME280_humidity;BME280_pressure;Samples;Min_cycle;Max_cycle;Signal;HPM_P1;HPM_P2
2023/10/21 00:02:23;;;;;;;0.68;0.68;;;9.20;99.90;;;;;;5114303;28;20050;-82
2023/10/21 00:04:49;;;;;;;0.60;0.60;;;9.20;99.90;;;;;;5116021;27;20066;-83
2023/10/21 00:07:15;;;;;;;0.73;0.73;;;9.30;99.90;;;;;;5085837;28;20047;-84
2023/10/21 00:09:40;;;;;;;0.60;0.60;;;10.10;99.90;;;;;;5100001;28;20858;-85
2023/10/21 00:12:08;;;;;;;0.52;0.52;;;9.30;99.90;;;;;;5074098;28;20051;-85
2023/10/21 00:14:34;;;;;;;0.50;0.50;;;9.30;99.90;;;;;;5082595;28;20051;-84
2023/10/21 00:17:00;;;;;;;0.50;0.50;;;9.30;99.90;;;;;;5090776;28;20062;-83
2023/10/21 00:19:34;;;;;;;1.08;1.08;;;;;;;;;;5097737;28;20100;-83
2023/10/21 00:22:00;;;;;;;0.63;0.63;;;9.30;99.90;;;;;;5090686;28;20055;-82
2023/10/21 00:24:25;;;;;;;0.50;0.47;;;9.30;99.90;;;;;;5100569;28;20504;-84
2023/10/21 00:26:51;;;;;;;0.40;0.40;;;9.20;99.90;;;;;;5098554;28;20055;-83
2023/10/21 00:29:17;;;;;;;1.23;1.23;;;9.30;99.90;;;;;;5132234;27;20036;-83
2023/10/21 00:31:44;;;;;;;0.70;0.70;;;9.60;99.90;;;;;;5077290;28;20052;-84
2023/10/21 00:34:10;;;;;;;0.30;0.30;;;9.40;99.90;;;;;;5128883;27;20039;-84
2023/10/21 00:36:37;;;;;;;0.50;0.50;;;9.40;99.90;;;;;;5084950;28;20048;-84
2023/10/21 00:39:04;;;;;;;0.40;0.40;;;9.50;99.90;;;;;;5110205;27;20548;-84
2023/10/21 00:41:30;;;;;;;0.50;0.50;;;9.50;99.90;;;;;;5116217;27;20043;-83
2023/10/21 00:43:55;;;;;;;1.40;1.23;;;9.60;99.90;;;;;;5080253;28;20052;-84
2023/10/21 00:46:26;;;;;;;0.40;0.40;;;9.60;99.90;;;;;;5115169;27;20035;-83
2023/10/21 00:48:52;;;;;;;0.55;0.55;;;9.70;99.90;;;;;;5109978;27;20561;-83
2023/10/21 00:51:19;;;;;;;;;;;9.80;99.90;;;;;;5108832;28;20067;-84
2023/10/21 00:53:45;;;;;;;1.87;1.77;;;9.80;99.90;;;;;;5113890;27;20014;-83
2023/10/21 00:56:11;;;;;;;0.40;0.40;;;9.80;99.90;;;;;;5115163;27;20065;-82
2023/10/21 00:58:37;;;;;;;0.38;0.38;;;9.80;99.90;;;;;;5076795;28;20047;-82
2023/10/21 01:01:09;;;;;;;0.95;0.95;;;9.80;99.90;;;;;;5099201;28;20070;-83
2023/10/21 01:03:36;;;;;;;0.40;0.40;;;9.80;99.90;;;;;;5114912;28;20121;-83
2023/10/21 01:06:02;;;;;;;0.50;0.50;;;9.80;99.90;;;;;;5089605;28;20051;-83
2023/10/21 01:08:28;;;;;;;0.50;0.50;;;9.80;99.90;;;;;;5096871;28;20085;-83
2023/10/21 01:10:55;;;;;;;;;;;9.90;99.90;;;;;;5094798;28;20255;-84
2023/10/21 01:13:21;;;;;;;0.68;0.68;;;9.90;99.90;;;;;;5111001;28;19919;-84
2023/10/21 01:15:47;;;;;;;;;;;10.00;99.90;;;;;;5097402;28;20068;-84
2023/10/21 01:18:13;;;;;;;0.45;0.45;;;9.80;99.90;;;;;;5083737;28;20386;-84
2023/10/21 01:20:42;;;;;;;0.40;0.40;;;9.80;99.90;;;;;;5108623;27;20058;-84
2023/10/21 01:23:12;;;;;;;0.30;0.30;;;9.80;99.90;;;;;;5095769;28;20121;-84
2023/10/21 01:25:38;;;;;;;0.65;0.65;;;10.00;99.90;;;;;;5099497;28;20046;-83
2023/10/21 01:28:04;;;;;;;0.50;0.50;;;10.30;99.90;;;;;;5106280;28;20035;-83
2023/10/21 01:30:29;;;;;;;0.40;0.40;;;9.80;99.90;;;;;;5065858;28;20439;-83
2023/10/21 01:32:55;;;;;;;0.50;0.50;;;9.80;99.90;;;;;;5061214;28;20043;-84
2023/10/21 01:35:21;;;;;;;0.60;0.60;;;9.80;99.90;;;;;;5092985;28;20512;-85
2023/10/21 01:37:47;;;;;;;0.40;0.40;;;11.50;99.90;;;;;;5111902;28;20055;-83
2023/10/21 01:40:13;;;;;;;0.95;0.93;;;9.80;99.90;;;;;;5113573;28;20039;-83
2023/10/21 01:42:40;;;;;;;0.50;0.50;;;9.80;99.90;;;;;;5104404;28;20071;-83
2023/10/21 01:45:07;;;;;;;0.40;0.40;;;9.80;99.90;;;;;;5120589;27;20065;-83
2023/10/21 01:47:34;;;;;;;0.38;0.38;;;9.80;99.90;;;;;;5097632;28;20085;-84
2023/10/21 01:50:00;;;;;;;0.30;0.30;;;9.70;99.90;;;;;;5100153;28;20105;-82
2023/10/21 01:52:26;;;;;;;0.50;0.50;;;9.70;99.90;;;;;;5095782;28;20051;-84
2023/10/21 01:54:55;;;;;;;0.50;0.50;;;;;;;;;;5079076;28;20044;-84
2023/10/21 01:57:21;;;;;;;0.80;0.80;;;9.60;99.90;;;;;;5091479;28;20061;-82
2023/10/21 01:59:46;;;;;;;0.50;0.50;;;9.60;99.90;;;;;;5094294;28;20044;-84
2023/10/21 02:02:12;;;;;;;1.05;1.05;;;9.60;99.90;;;;;;5114705;28;20067;-83
2023/10/21 02:04:38;;;;;;;0.60;0.60;;;9.60;99.90;;;;;;5102904;28;20039;-83
2023/10/21 02:07:04;;;;;;;0.65;0.65;;;8.80;99.90;;;;;;5096841;28;20043;-83
2023/10/21 02:09:30;;;;;;;0.40;0.40;;;9.60;99.90;;;;;;5114400;27;20500;-84
2023/10/21 02:11:56;;;;;;;3.20;0.77;;;9.50;99.90;;;;;;5098826;28;20048;-83
2023/10/21 02:14:23;;;;;;;0.40;0.40;;;9.80;99.90;;;;;;5096495;28;20088;-84
2023/10/21 02:16:53;;;;;;;0.40;0.40;;;9.60;99.90;;;;;;5113265;27;20110;-83
2023/10/21 02:19:20;;;;;;;0.40;0.40;;;9.50;99.90;;;;;;5103023;28;20052;-84
2023/10/21 02:21:47;;;;;;;0.50;0.50;;;9.50;99.90;;;;;;5115265;28;20047;-84
2023/10/21 02:24:12;;;;;;;0.52;0.50;;;9.70;99.90;;;;;;5087250;28;20482;-83
2023/10/21 02:26:38;;;;;;;0.40;0.40;;;9.50;99.90;;;;;;5093560;28;20071;-84
2023/10/21 02:29:04;;;;;;;0.40;0.40;;;9.50;99.90;;;;;;5120227;27;20146;-83
2023/10/21 02:31:30;;;;;;;0.85;0.85;;;9.50;99.90;;;;;;5086860;28;20047;-83
2023/10/21 02:33:56;;;;;;;1.23;0.40;;;9.40;99.90;;;;;;5096543;28;20044;-82
2023/10/21 02:36:21;;;;;;;0.85;0.85;;;9.40;99.90;;;;;;5130327;27;20043;-83
2023/10/21 02:38:49;;;;;;;1.00;0.50;;;9.70;99.90;;;;;;5109832;28;20046;-83
2023/10/21 02:41:15;;;;;;;0.52;0.52;;;9.30;99.90;;;;;;5104936;28;20056;-83
2023/10/21 02:43:40;;;;;;;0.60;0.60;;;9.30;99.90;;;;;;5085836;28;20104;-83
2023/10/21 02:46:08;;;;;;;1.25;0.85;;;9.20;99.90;;;;;;5103245;28;20146;-82
2023/10/21 02:48:34;;;;;;;0.50;0.50;;;9.20;99.90;;;;;;5134485;27;20371;-84
2023/10/21 02:51:00;;;;;;;0.65;0.65;;;9.20;99.90;;;;;;5094358;28;20085;-84
2023/10/21 02:53:26;;;;;;;0.40;0.40;;;9.10;99.90;;;;;;5107432;28;20106;-83
2023/10/21 02:55:51;;;;;;;1.55;0.70;;;9.10;99.90;;;;;;5114134;27;20052;-82
2023/10/21 02:58:17;;;;;;;0.47;0.47;;;9.10;99.90;;;;;;5099121;28;20138;-83
2023/10/21 03:00:43;;;;;;;0.70;0.70;;;9.70;99.90;;;;;;5110085;28;20071;-83
2023/10/21 03:03:08;;;;;;;0.45;0.45;;;9.10;99.90;;;;;;5112373;28;20035;-83
2023/10/21 03:05:34;;;;;;;0.50;0.50;;;9.00;99.90;;;;;;5101913;27;20069;-83
2023/10/21 03:08:00;;;;;;;0.40;0.40;;;9.00;99.90;;;;;;5116287;27;20047;-82
2023/10/21 03:10:26;;;;;;;0.40;0.40;;;9.10;99.90;;;;;;5114528;27;20048;-83
2023/10/21 03:12:51;;;;;;;0.38;0.38;;;9.10;99.90;;;;;;5108414;27;20063;-84
2023/10/21 03:15:17;;;;;;;0.50;0.50;;;9.10;99.90;;;;;;5105368;27;20055;-84
2023/10/21 03:17:43;;;;;;;0.40;0.40;;;9.00;99.90;;;;;;5097603;28;20051;-83
2023/10/21 03:20:09;;;;;;;0.68;0.68;;;9.10;99.90;;;;;;5112806;27;20115;-83
2023/10/21 03:22:35;;;;;;;;;;;9.10;99.90;;;;;;5096093;28;20035;-83
2023/10/21 03:25:00;;;;;;;0.93;0.88;;;9.10;99.90;;;;;;5098725;27;19930;-84
2023/10/21 03:27:26;;;;;;;0.82;0.82;;;9.10;99.90;;;;;;5116597;27;20044;-84
2023/10/21 03:29:52;;;;;;;0.55;0.55;;;9.10;99.90;;;;;;5112151;27;20711;-85
2023/10/21 03:32:17;;;;;;;0.60;0.60;;;9.10;99.90;;;;;;5101488;28;20051;-82
2023/10/21 03:34:43;;;;;;;1.85;1.75;;;9.20;99.90;;;;;;5074887;28;20395;-82
2023/10/21 03:37:09;;;;;;;1.00;1.00;;;9.10;99.90;;;;;;5094561;28;20044;-84
2023/10/21 03:39:35;;;;;;;0.40;0.40;;;9.20;99.90;;;;;;5115927;27;20031;-83
2023/10/21 03:42:00;;;;;;;0.50;0.50;;;9.30;99.90;;;;;;5099160;27;20800;-83
2023/10/21 03:44:26;;;;;;;0.73;0.73;;;9.30;99.90;;;;;;5101734;28;20505;-82
2023/10/21 03:46:52;;;;;;;0.40;0.40;;;9.20;99.90;;;;;;5102576;28;20081;-86
2023/10/21 03:49:18;;;;;;;0.60;0.60;;;9.30;99.90;;;;;;5113047;27;20040;-82
2023/10/21 03:51:45;;;;;;;0.50;0.50;;;8.20;99.90;;;;;;5085757;28;20098;-83
2023/10/21 03:54:11;;;;;;;0.50;0.50;;;9.30;99.90;;;;;;5094582;28;20800;-83
2023/10/21 03:56:36;;;;;;;0.50;0.50;;;9.50;99.90;;;;;;5103448;27;20043;-82
2023/10/21 03:59:02;;;;;;;0.85;0.73;;;9.30;99.90;;;;;;5101945;27;21059;-83
2023/10/21 04:01:28;;;;;;;0.75;0.75;;;9.20;99.90;;;;;;5097857;28;20054;-83
2023/10/21 04:03:53;;;;;;;0.60;0.60;;;9.30;99.90;;;;;;5110878;27;20081;-83
2023/10/21 04:06:19;;;;;;;0.68;0.68;;;9.20;99.90;;;;;;5086174;28;20085;-83
2023/10/21 04:08:46;;;;;;;0.90;0.90;;;9.20;99.90;;;;;;5117897;27;20044;-83
2023/10/21 04:11:12;;;;;;;;;;;9.30;99.90;;;;;;5081157;28;20051;-83
2023/10/21 04:13:38;;;;;;;0.40;0.40;;;9.20;99.90;;;;;;5113084;27;19924;-83
2023/10/21 04:16:04;;;;;;;0.50;0.50;;;9.30;99.90;;;;;;5115390;27;20326;-83
2023/10/21 04:18:30;;;;;;;0.47;0.47;;;9.20;99.90;;;;;;5099114;28;20039;-82
2023/10/21 04:20:55;;;;;;;0.38;0.38;;;7.60;99.90;;;;;;5116457;27;20055;-83
2023/10/21 04:23:21;;;;;;;0.35;0.35;;;9.20;99.90;;;;;;5110773;27;20115;-82
2023/10/21 04:25:49;;;;;;;0.57;0.57;;;9.40;99.90;;;;;;5114476;27;20066;-83
2023/10/21 04:28:15;;;;;;;0.45;0.45;;;9.20;99.90;;;;;;5111576;28;20509;-83
2023/10/21 04:30:41;;;;;;;0.60;0.60;;;9.20;99.90;;;;;;5113774;27;20043;-82
2023/10/21 04:33:06;;;;;;;0.85;0.85;;;9.30;99.90;;;;;;5108815;27;20074;-82
2023/10/21 04:35:32;;;;;;;1.00;0.75;;;9.10;99.90;;;;;;5058048;28;20044;-83
2023/10/21 04:37:59;;;;;;;0.50;0.50;;;9.20;99.90;;;;;;5092225;27;20051;-83
2023/10/21 04:40:25;;;;;;;0.43;0.43;;;9.30;99.90;;;;;;5088729;28;20044;-84
2023/10/21 04:42:50;;;;;;;0.52;0.52;;;9.20;99.90;;;;;;5111337;27;20039;-82
2023/10/21 04:45:17;;;;;;;0.50;0.50;;;9.00;99.90;;;;;;5099366;27;20051;-83
2023/10/21 04:47:43;;;;;;;0.30;0.30;;;8.90;99.90;;;;;;5114918;27;20072;-82
2023/10/21 04:50:09;;;;;;;0.50;0.50;;;8.80;99.90;;;;;;5105279;27;20112;-83
2023/10/21 04:52:35;;;;;;;0.40;0.40;;;9.00;99.90;;;;;;5100122;27;20055;-83
2023/10/21 04:55:01;;;;;;;0.82;0.82;;;8.90;99.90;;;;;;5118103;27;20089;-83
2023/10/21 04:57:27;;;;;;;1.73;1.63;;;8.80;99.90;;;;;;5111934;27;20039;-83
2023/10/21 04:59:53;;;;;;;0.47;0.47;;;8.80;99.90;;;;;;5098427;27;20056;-83
2023/10/21 05:02:20;;;;;;;0.40;0.40;;;8.70;99.90;;;;;;5089694;27;20043;-83
2023/10/21 05:04:46;;;;;;;0.55;0.55;;;8.60;99.90;;;;;;5115303;27;20772;-83
2023/10/21 05:07:12;;;;;;;0.50;0.50;;;8.60;99.90;;;;;;5104352;27;20051;-83
2023/10/21 05:09:39;;;;;;;2.75;1.20;;;;;;;;;;5103252;28;20415;-83
2023/10/21 05:12:04;;;;;;;0.47;0.47;;;8.60;99.90;;;;;;5079763;28;20575;-83
2023/10/21 05:14:31;;;;;;;0.63;0.63;;;8.60;99.90;;;;;;5074285;28;20052;-84
2023/10/21 05:16:56;;;;;;;0.50;0.50;;;8.60;99.90;;;;;;5097763;27;20110;-83
2023/10/21 05:19:23;;;;;;;0.60;0.60;;;8.60;99.90;;;;;;5098819;28;20123;-84
2023/10/21 05:21:48;;;;;;;0.50;0.50;;;8.60;99.90;;;;;;5098204;28;20042;-84
2023/10/21 05:24:14;;;;;;;0.50;0.50;;;;;;;;;;5103859;28;20047;-84
2023/10/21 05:26:40;;;;;;;1.10;1.00;;;8.60;99.90;;;;;;5096611;28;20043;-84
2023/10/21 05:29:06;;;;;;;0.70;0.70;;;8.60;99.90;;;;;;5090177;28;20051;-83
2023/10/21 05:31:31;;;;;;;0.50;0.50;;;8.60;99.90;;;;;;5115138;28;20039;-84
2023/10/21 05:33:59;;;;;;;1.05;0.82;;;8.40;99.90;;;;;;5119772;27;20055;-84
2023/10/21 05:36:25;;;;;;;0.45;0.45;;;8.40;99.90;;;;;;5088540;27;20105;-84
2023/10/21 05:38:51;;;;;;;0.32;0.32;;;8.30;99.90;;;;;;5083755;28;20048;-83
2023/10/21 05:41:17;;;;;;;0.73;0.73;;;8.70;99.90;;;;;;5104473;28;20074;-83
2023/10/21 05:43:45;;;;;;;0.40;0.40;;;8.60;99.90;;;;;;5113635;28;20058;-83
2023/10/21 05:46:11;;;;;;;0.75;0.75;;;8.40;99.90;;;;;;5105452;28;20378;-84
2023/10/21 05:48:38;;;;;;;1.20;1.20;;;8.50;99.90;;;;;;5102775;28;20054;-83
2023/10/21 05:51:03;;;;;;;0.80;0.80;;;8.50;99.90;;;;;;5103772;28;20521;-83
2023/10/21 05:53:30;;;;;;;0.68;0.68;;;;;;;;;;5129057;27;20055;-84
2023/10/21 05:55:57;;;;;;;0.77;0.52;;;8.50;99.90;;;;;;5079662;28;20138;-83
2023/10/21 05:58:24;;;;;;;0.30;0.30;;;8.60;99.90;;;;;;5103587;28;20042;-84
2023/10/21 06:00:50;;;;;;;0.40;0.40;;;8.50;99.90;;;;;;5080159;28;20047;-84
2023/10/21 06:03:16;;;;;;;0.50;0.50;;;8.50;99.90;;;;;;5102807;28;20390;-83
2023/10/21 06:05:42;;;;;;;0.40;0.40;;;8.50;99.90;;;;;;5091180;28;20089;-83
2023/10/21 06:08:08;;;;;;;0.50;0.50;;;8.60;99.90;;;;;;5094136;28;20043;-83
2023/10/21 06:10:34;;;;;;;0.60;0.60;;;8.50;99.90;;;;;;5115737;28;20104;-83
2023/10/21 06:13:00;;;;;;;0.50;0.50;;;8.60;99.90;;;;;;5125012;28;20100;-81
2023/10/21 06:15:27;;;;;;;0.50;0.50;;;8.70;99.90;;;;;;5120116;28;20051;-83
2023/10/21 06:17:53;;;;;;;2.05;0.50;;;8.70;99.90;;;;;;5108112;28;20052;-83
2023/10/21 06:20:18;;;;;;;0.30;0.30;;;8.90;99.90;;;;;;5111323;28;20046;-83
2023/10/21 06:22:44;;;;;;;0.40;0.40;;;8.70;99.90;;;;;;5105778;28;20048;-83
2023/10/21 06:25:10;;;;;;;0.50;0.50;;;8.70;99.90;;;;;;5088667;28;20040;-83
2023/10/21 06:27:39;;;;;;;0.40;0.40;;;8.80;99.90;;;;;;5110163;28;20040;-83
2023/10/21 06:30:05;;;;;;;0.70;0.70;;;8.80;99.90;;;;;;5092433;28;20044;-83
2023/10/21 06:32:31;;;;;;;0.40;0.40;;;8.80;99.90;;;;;;5086180;28;20052;-83
2023/10/21 06:34:57;;;;;;;1.48;1.38;;;8.80;99.90;;;;;;5088228;28;20109;-82
2023/10/21 06:37:23;;;;;;;0.50;0.50;;;8.90;99.90;;;;;;5079966;28;20070;-83
2023/10/21 06:39:48;;;;;;;0.50;0.50;;;9.00;99.90;;;;;;5094718;28;20094;-83
2023/10/21 06:42:15;;;;;;;0.40;0.40;;;9.00;99.90;;;;;;5111687;28;20050;-84
2023/10/21 06:44:41;;;;;;;0.40;0.40;;;9.00;99.90;;;;;;5087723;28;20588;-83
2023/10/21 06:47:07;;;;;;;0.40;0.40;;;;;;;;;;5097363;28;20052;-85
2023/10/21 06:49:33;;;;;;;0.50;0.50;;;9.10;99.90;;;;;;5097586;28;20088;-84
2023/10/21 06:51:58;;;;;;;0.80;0.80;;;9.20;99.90;;;;;;5109137;27;20115;-84
2023/10/21 06:54:24;;;;;;;0.50;0.50;;;9.10;99.90;;;;;;5098156;28;20048;-83
2023/10/21 06:56:50;;;;;;;0.52;0.52;;;9.20;99.90;;;;;;5100894;28;20044;-82
2023/10/21 06:59:16;;;;;;;0.50;0.50;;;7.80;99.90;;;;;;5113012;28;20044;-83
2023/10/21 07:01:41;;;;;;;0.32;0.32;;;9.30;99.90;;;;;;5114650;27;20123;-82
2023/10/21 07:04:10;;;;;;;0.40;0.40;;;9.40;99.90;;;;;;5093940;28;20130;-83
2023/10/21 07:06:39;;;;;;;0.40;0.40;;;9.30;99.90;;;;;;5098961;28;20637;-84
2023/10/21 07:09:06;;;;;;;1.10;1.00;;;8.40;99.90;;;;;;5084888;28;20039;-82
2023/10/21 07:11:33;;;;;;;0.43;0.43;;;;;;;;;;5101498;28;20448;-84
2023/10/21 07:13:59;;;;;;;0.30;0.30;;;9.50;99.90;;;;;;5079608;28;20103;-83
2023/10/21 07:16:25;;;;;;;0.40;0.40;;;9.50;99.90;;;;;;5106207;28;20052;-83
2023/10/21 07:18:51;;;;;;;0.40;0.40;;;9.60;99.90;;;;;;5101691;27;20039;-83
2023/10/21 07:21:16;;;;;;;0.40;0.40;;;9.60;99.90;;;;;;5092491;27;20159;-83
2023/10/21 07:23:42;;;;;;;0.40;0.40;;;9.70;99.90;;;;;;5134368;27;20047;-82
2023/10/21 07:26:08;;;;;;;0.40;0.40;;;9.90;99.90;;;;;;5116718;28;20092;-84
2023/10/21 07:28:34;;;;;;;0.32;0.32;;;9.70;99.90;;;;;;5098249;27;20136;-84
2023/10/21 07:31:00;;;;;;;0.30;0.30;;;9.90;99.90;;;;;;5116985;27;20039;-84
2023/10/21 07:33:28;;;;;;;0.80;0.75;;;9.90;99.90;;;;;;5113821;27;20043;-83
2023/10/21 07:35:54;;;;;;;0.50;0.50;;;10.50;99.90;;;;;;5098825;28;20077;-83
2023/10/21 07:38:21;;;;;;;0.45;0.45;;;10.00;99.90;;;;;;5104822;28;20047;-85
2023/10/21 07:40:48;;;;;;;0.40;0.40;;;10.10;99.90;;;;;;5116308;27;20088;-83
2023/10/21 07:43:16;;;;;;;0.40;0.40;;;10.00;99.90;;;;;;5114780;27;20047;-82
2023/10/21 07:45:42;;;;;;;0.65;0.50;;;10.20;99.90;;;;;;5097520;28;20044;-83
2023/10/21 07:48:08;;;;;;;0.30;0.30;;;10.10;99.90;;;;;;5105551;27;20449;-83
2023/10/21 07:50:34;;;;;;;1.30;1.20;;;10.30;99.90;;;;;;5097217;28;20066;-84
2023/10/21 07:53:01;;;;;;;0.35;0.35;;;10.30;99.90;;;;;;5103891;28;20047;-84
2023/10/21 07:55:28;;;;;;;0.73;0.73;;;10.40;99.90;;;;;;5098902;28;20104;-83
2023/10/21 07:57:55;;;;;;;0.40;0.40;;;10.40;99.90;;;;;;5118214;27;20494;-84
2023/10/21 08:00:21;;;;;;;0.85;0.50;;;;;;;;;;5100680;27;20047;-85
2023/10/21 08:02:47;;;;;;;0.60;0.60;;;10.50;99.90;;;;;;5107897;28;20051;-83
2023/10/21 08:05:15;;;;;;;0.40;0.40;;;10.50;99.90;;;;;;5105634;28;20054;-84
2023/10/21 08:07:41;;;;;;;0.40;0.40;;;10.60;99.90;;;;;;5131639;27;20051;-82
2023/10/21 08:10:07;;;;;;;0.40;0.40;;;10.60;99.90;;;;;;5115996;27;20051;-83
2023/10/21 08:12:33;;;;;;;;;;;10.60;99.90;;;;;;5119973;27;20039;-84
2023/10/21 08:15:04;;;;;;;0.43;0.40;;;10.90;99.90;;;;;;5115246;27;19923;-84
2023/10/21 08:17:30;;;;;;;0.30;0.30;;;10.80;99.90;;;;;;5119470;27;20111;-84
2023/10/21 08:19:56;;;;;;;0.50;0.50;;;11.30;99.90;;;;;;5115589;28;20126;-84
2023/10/21 08:22:22;;;;;;;;;;;11.00;99.90;;;;;;5100992;28;20104;-84
2023/10/21 08:24:47;;;;;;;0.55;0.55;;;10.90;99.90;;;;;;5118015;27;19919;-83
2023/10/21 08:27:13;;;;;;;0.75;0.75;;;11.20;99.90;;;;;;5119123;27;20138;-84
2023/10/21 08:29:45;;;;;;;0.52;0.52;;;11.10;99.90;;;;;;5116028;27;20086;-84
2023/10/21 08:32:11;;;;;;;0.38;0.38;;;11.10;99.90;;;;;;5112131;28;20058;-83
2023/10/21 08:34:37;;;;;;;0.90;0.65;;;11.20;99.90;;;;;;5099795;28;20118;-84
2023/10/21 08:37:04;;;;;;;0.43;0.43;;;11.20;99.90;;;;;;5105843;28;20108;-84
2023/10/21 08:39:30;;;;;;;0.30;0.30;;;11.30;99.90;;;;;;5116127;28;20040;-84
2023/10/21 08:41:56;;;;;;;0.60;0.60;;;11.30;99.90;;;;;;5100318;28;20110;-84
2023/10/21 08:44:23;;;;;;;0.32;0.32;;;11.30;99.90;;;;;;5117618;28;20079;-84
2023/10/21 08:46:51;;;;;;;0.32;0.32;;;11.30;99.90;;;;;;5116861;27;20375;-83
2023/10/21 08:49:19;;;;;;;0.30;0.30;;;11.30;99.90;;;;;;5101641;28;20051;-82
2023/10/21 08:51:47;;;;;;;0.30;0.30;;;11.40;99.90;;;;;;5097905;28;20051;-83
2023/10/21 08:54:14;;;;;;;0.22;0.22;;;11.40;99.90;;;;;;5097362;28;20058;-84
2023/10/21 08:56:40;;;;;;;0.30;0.30;;;11.50;99.90;;;;;;5114214;28;20054;-83
2023/10/21 08:59:08;;;;;;;0.30;0.30;;;11.50;99.90;;;;;;5115285;28;20188;-83
2023/10/21 09:01:36;;;;;;;0.32;0.32;;;11.50;99.90;;;;;;5130291;27;20059;-83
2023/10/21 09:04:03;;;;;;;0.50;0.50;;;11.70;99.90;;;;;;5112115;27;20056;-83
2023/10/21 09:06:29;;;;;;;0.47;0.47;;;11.80;99.90;;;;;;5114564;27;20051;-83
2023/10/21 09:08:55;;;;;;;0.30;0.30;;;12.00;99.90;;;;;;5096681;28;20100;-83
2023/10/21 09:11:24;;;;;;;0.40;0.40;;;12.10;99.90;;;;;;5096552;28;20438;-83
2023/10/21 09:13:52;;;;;;;0.35;0.35;;;12.20;99.90;;;;;;5134238;27;20054;-84
2023/10/21 09:16:19;;;;;;;0.40;0.40;;;12.30;99.90;;;;;;5111079;28;20533;-83
2023/10/21 09:18:59;;;;;;;0.40;0.40;;;12.30;99.90;;;;;;5092901;28;20070;-83
2023/10/21 09:21:41;;;;;;;0.40;0.40;;;12.40;99.90;;;;;;5109324;28;20050;-84
2023/10/21 09:24:12;;;;;;;0.63;0.63;;;12.50;99.90;;;;;;5091813;28;20039;-83
2023/10/21 09:26:45;;;;;;;0.38;0.38;;;12.60;99.90;;;;;;5110965;28;20051;-83
2023/10/21 09:29:18;;;;;;;0.50;0.50;;;12.60;99.90;;;;;;5103398;28;20154;-83
2023/10/21 09:31:51;;;;;;;0.57;0.57;;;12.70;99.90;;;;;;5073136;28;20048;-83
2023/10/21 09:34:33;;;;;;;0.63;0.63;;;12.10;99.90;;;;;;5086419;28;20413;-84
2023/10/21 09:37:01;;;;;;;0.65;0.65;;;13.00;99.90;;;;;;5108152;28;20055;-84
2023/10/21 09:39:38;;;;;;;0.35;0.35;;;12.80;99.90;;;;;;5112272;28;20776;-83
2023/10/21 09:42:06;;;;;;;0.38;0.38;;;13.20;99.90;;;;;;5095772;28;20074;-84
2023/10/21 09:44:34;;;;;;;0.43;0.43;;;13.40;99.90;;;;;;5090635;28;20121;-84
2023/10/21 09:47:05;;;;;;;0.38;0.38;;;13.40;99.90;;;;;;5111123;28;20036;-83
2023/10/21 09:49:37;;;;;;;0.65;0.65;;;13.20;99.90;;;;;;5073546;28;20051;-83
2023/10/21 09:52:11;;;;;;;0.20;0.20;;;13.50;99.90;;;;;;5077579;28;20064;-84
2023/10/21 09:55:04;;;;;;;0.20;0.20;;;13.50;99.90;;;;;;5075441;28;20052;-84
2023/10/21 09:57:31;;;;;;;0.30;0.30;;;13.60;99.90;;;;;;5071041;28;20066;-83
2023/10/21 09:59:58;;;;;;;0.80;0.80;;;13.60;99.90;;;;;;5053035;28;20110;-83
2023/10/21 10:02:26;;;;;;;0.93;0.93;;;13.60;99.90;;;;;;5089902;28;20045;-82
2023/10/21 10:04:53;;;;;;;0.77;0.77;;;13.80;99.90;;;;;;5050006;28;20057;-83
2023/10/21 10:07:20;;;;;;;0.20;0.20;;;13.80;99.90;;;;;;5081422;28;20131;-84
2023/10/21 10:09:47;;;;;;;2.65;0.40;;;13.80;99.90;;;;;;5102077;28;20043;-83
2023/10/21 10:12:18;;;;;;;0.47;0.47;;;13.80;99.90;;;;;;5068428;28;20059;-84
2023/10/21 10:14:45;;;;;;;0.73;0.73;;;13.80;99.90;;;;;;5066524;28;20085;-83
2023/10/21 10:17:13;;;;;;;0.75;0.50;;;13.80;99.90;;;;;;5101042;28;20048;-83
2023/10/21 10:19:43;;;;;;;0.30;0.30;;;13.90;99.90;;;;;;5087230;28;20494;-83
2023/10/21 10:22:27;;;;;;;0.75;0.73;;;14.10;99.90;;;;;;5068883;28;20036;-86
2023/10/21 10:25:15;;;;;;;1.55;0.65;;;13.90;99.90;;;;;;5071036;28;20437;-83
2023/10/21 10:27:42;;;;;;;0.30;0.30;;;14.00;99.90;;;;;;5055836;28;20082;-85
2023/10/21 10:30:19;;;;;;;0.20;0.20;;;14.30;99.90;;;;;;5070059;28;20102;-83
2023/10/21 10:32:55;;;;;;;0.60;0.60;;;14.10;99.90;;;;;;5072858;28;20057;-83
2023/10/21 10:35:40;;;;;;;0.80;0.50;;;14.00;99.90;;;;;;5069804;28;20450;-84
2023/10/21 10:38:32;;;;;;;0.30;0.30;;;14.00;99.90;;;;;;5073519;28;20119;-84
2023/10/21 10:41:06;;;;;;;0.50;0.50;;;14.10;99.90;;;;;;5070514;28;20048;-84
2023/10/21 10:44:01;;;;;;;0.63;0.63;;;14.30;99.90;;;;;;5074606;28;20588;-83
2023/10/21 10:46:30;;;;;;;0.63;0.60;;;14.00;99.90;;;;;;5074913;28;20123;-83
2023/10/21 10:49:00;;;;;;;0.30;0.30;;;14.10;99.90;;;;;;5070833;28;20052;-84
2023/10/21 10:51:27;;;;;;;0.40;0.40;;;12.60;99.90;;;;;;5072485;28;20061;-84
2023/10/21 10:54:00;;;;;;;2.45;1.60;;;14.20;99.90;;;;;;5107922;27;20147;-82
2023/10/21 10:56:40;;;;;;;0.40;0.40;;;14.00;99.90;;;;;;5090568;28;20198;-83
2023/10/21 10:59:12;;;;;;;0.30;0.30;;;14.00;99.90;;;;;;5097481;28;20075;-82
2023/10/21 11:01:37;;;;;;;0.43;0.30;;;14.00;99.90;;;;;;5073067;28;20041;-83
2023/10/21 11:04:05;;;;;;;1.20;0.75;;;14.00;99.90;;;;;;5076448;28;20044;-82
2023/10/21 11:06:35;;;;;;;0.30;0.30;;;13.90;99.90;;;;;;5074600;28;20057;-83
2023/10/21 11:09:05;;;;;;;0.20;0.20;;;14.00;99.90;;;;;;5067075;28;20044;-82
2023/10/21 11:11:48;;;;;;;0.30;0.30;;;14.00;99.90;;;;;;5090714;28;20123;-83
2023/10/21 11:14:18;;;;;;;0.30;0.30;;;14.10;99.90;;;;;;5070911;28;20052;-83
2023/10/21 11:16:49;;;;;;;0.35;0.35;;;14.20;99.90;;;;;;5063387;28;20048;-82
2023/10/21 11:19:15;;;;;;;0.30;0.30;;;14.20;99.90;;;;;;5067299;28;20036;-84
2023/10/21 11:21:59;;;;;;;0.30;0.30;;;13.10;99.90;;;;;;5088702;28;20041;-82
2023/10/21 11:24:26;;;;;;;0.43;0.43;;;13.90;99.90;;;;;;5049699;28;20124;-85
2023/10/21 11:26:53;;;;;;;0.30;0.30;;;13.90;99.90;;;;;;5078543;28;20052;-84
2023/10/21 11:29:30;;;;;;;0.30;0.30;;;13.80;99.90;;;;;;5107491;28;20040;-83
2023/10/21 11:32:02;;;;;;;0.13;0.13;;;13.80;99.90;;;;;;5070467;28;20182;-84
2023/10/21 11:34:29;;;;;;;;;;;14.00;99.90;;;;;;5055326;28;20040;-85
2023/10/21 11:36:57;;;;;;;0.40;0.40;;;14.30;99.90;;;;;;5105324;28;19967;-83
2023/10/21 11:39:43;;;;;;;0.30;0.30;;;14.00;99.90;;;;;;5073449;28;20108;-84
2023/10/21 11:42:18;;;;;;;;;;;14.10;99.90;;;;;;5085377;28;20045;-84
2023/10/21 11:44:57;;;;;;;0.20;0.20;;;13.80;99.90;;;;;;5073198;28;19924;-83
2023/10/21 11:47:25;;;;;;;0.20;0.20;;;14.60;99.90;;;;;;5072808;28;20411;-86
2023/10/21 11:49:53;;;;;;;0.20;0.20;;;14.50;99.90;;;;;;5095632;28;20052;-83
2023/10/21 11:52:21;;;;;;;0.30;0.30;;;14.50;99.90;;;;;;5084837;28;20060;-83
2023/10/21 11:54:48;;;;;;;0.30;0.30;;;;;;;;;;5094188;28;20048;-84
2023/10/21 11:57:41;;;;;;;0.20;0.20;;;15.40;99.90;;;;;;5094464;28;20078;-84
2023/10/21 12:06:16;;;;;;;0.45;0.45;;;14.30;99.90;;;;;;5111365;27;20487;-85
2023/10/21 12:17:00;;;;;;;0.28;0.28;;;13.80;99.90;;;;;;5090484;28;20048;-84
2023/10/21 12:19:49;;;;;;;0.30;0.30;;;13.60;99.90;;;;;;5091724;28;20059;-85
2023/10/21 12:30:42;;;;;;;0.35;0.35;;;13.70;99.90;;;;;;5108670;28;20052;-84
2023/10/21 12:41:54;;;;;;;0.40;0.40;;;14.00;99.90;;;;;;5117748;27;20117;-87
2023/10/21 12:44:24;;;;;;;0.50;0.50;;;14.20;99.90;;;;;;5116650;27;20052;-85
2023/10/21 12:46:57;;;;;;;0.20;0.20;;;14.40;99.90;;;;;;5096766;28;20040;-86
2023/10/21 12:49:28;;;;;;;0.30;0.30;;;14.60;99.90;;;;;;5084850;28;20054;-86
2023/10/21 12:51:59;;;;;;;0.20;0.20;;;14.70;99.90;;;;;;5114679;27;20068;-87
2023/10/21 12:54:30;;;;;;;0.25;0.25;;;15.10;99.90;;;;;;5077778;28;20052;-86
2023/10/21 12:56:57;;;;;;;0.20;0.20;;;14.60;99.90;;;;;;5073025;28;20079;-86
2023/10/21 12:59:23;;;;;;;0.30;0.30;;;14.90;99.90;;;;;;5077869;28;20048;-85
2023/10/21 13:01:49;;;;;;;0.35;0.35;;;15.40;99.90;;;;;;5073061;28;20037;-85
2023/10/21 13:04:15;;;;;;;0.20;0.20;;;15.30;99.90;;;;;;5078113;28;20109;-86
2023/10/21 13:06:47;;;;;;;0.28;0.28;;;14.60;99.90;;;;;;5072515;28;20059;-87
2023/10/21 13:09:24;;;;;;;0.30;0.30;;;17.40;99.90;;;;;;5076501;28;20407;-85
2023/10/21 13:11:51;;;;;;;0.30;0.30;;;14.80;99.90;;;;;;5091583;28;20048;-84
2023/10/21 13:14:27;;;;;;;0.30;0.30;;;15.10;99.90;;;;;;5078395;28;20048;-86
2023/10/21 13:16:53;;;;;;;0.28;0.28;;;15.60;99.90;;;;;;5078198;28;20178;-85
2023/10/21 13:19:24;;;;;;;0.30;0.30;;;15.00;99.90;;;;;;5078011;28;20067;-86
2023/10/21 13:21:53;;;;;;;0.20;0.20;;;15.00;99.90;;;;;;5076632;28;20047;-86
2023/10/21 13:24:19;;;;;;;0.20;0.20;;;14.70;99.90;;;;;;5080399;28;20070;-85
2023/10/21 13:26:49;;;;;;;0.22;0.22;;;15.30;99.90;;;;;;5084686;28;20048;-86
2023/10/21 13:29:15;;;;;;;0.30;0.30;;;;;;;;;;5077538;28;20097;-86
2023/10/21 13:31:41;;;;;;;;;;;15.00;99.90;;;;;;5077471;28;20040;-88
2023/10/21 13:34:07;;;;;;;0.15;0.15;;;14.90;99.90;;;;;;5078526;28;20341;-85